Tour Pomerol — 9V9183 — position and weather

sailwx.info

Track history (hours):
 
Tides and Currents Weather Stations Pressure Air Temp Water Temp Dewpoint Dewpoint Depression Visibility Wind Speed Wind Dir Waves Ship Positions

Tour Pomerol

Last reported at 2014-Jul-20 20:33 UTC. Time now 2014-Jul-22 17:32 UTC.
Position N 50°21' W 001°01'.

Length 120 m; draft 6.8 m.

Type: Tanker. MMSI: 563384980.

Date/timePositionNaut miles runAvg speedWind from/ knotsBaromVisibWave heightAir tempDewpointWater temp
2014-Jul-20 20:33N 50°21' W 001°01'1414.0
2014-Jul-20 19:33N 50°25' W 000°40'1313.3
2014-Jul-20 18:34N 50°28' W 000°20'1412.7
2014-Jul-20 17:26N 50°32' E 000°01'1112.0
2014-Jul-20 16:33N 50°35' E 000°18'1111.4
2014-Jul-20 15:34N 50°38' E 000°35'1211.7
2014-Jul-20 14:33N 50°45' E 000°50'1212.1
2014-Jul-20 13:33N 50°52' E 001°05'1313.0
2014-Jul-20 12:34N 51°01' E 001°21'1413.5
2014-Jul-20 11:33N 51°09' E 001°37'1312.8
2014-Jul-20 10:33N 51°19' E 001°51'1212.2
2014-Jul-20 09:33N 51°29' E 002°02'1211.5
2014-Jul-20 08:33N 51°38' E 002°14'1111.2
2014-Jul-20 07:33N 51°46' E 002°26'1110.3
2014-Jul-20 06:31N 51°56' E 002°34'13512.1
2014-Jul-19 19:20N 53°57' E 004°12'1012.4
2014-Jul-19 18:33N 54°02' E 004°26'1312.8
2014-Jul-19 17:33N 54°04' E 004°48'1312.8
2014-Jul-19 16:33N 54°05' E 005°09'1312.6
2014-Jul-19 15:33N 54°07' E 005°31'1312.8
2014-Jul-19 14:33N 54°09' E 005°53'1212.0
2014-Jul-19 13:33N 54°11' E 006°13'1411.0
2014-Jul-19 12:15N 54°11' E 006°37'811.3
2014-Jul-19 11:33N 54°11' E 006°51'1212.0
2014-Jul-19 10:33N 54°12' E 007°11'1212.3
2014-Jul-19 09:33N 54°12' E 007°32'1312.6
2014-Jul-19 08:33N 54°06' E 007°51'1212.3
2014-Jul-19 07:33N 54°01' E 008°10'1515.2
2014-Jul-19 06:33N 53°58' E 008°36'1312.6
2014-Jul-19 05:34N 53°51' E 008°53'1211.6
2014-Jul-19 04:33N 53°53' E 009°12'1110.6
2014-Jul-19 03:33N 53°45' E 009°24'1212.5
2014-Jul-19 02:34N 53°35' E 009°37'1211.2
2014-Jul-19 01:28N 53°31' E 009°56'0 0.0
2014-Jul-19 00:28N 53°31' E 009°56'0 0.0
2014-Jul-18 23:31N 53°31' E 009°56'0 0.0
2014-Jul-18 22:28N 53°31' E 009°56'0 0.0
2014-Jul-18 21:22N 53°31' E 009°56'0 0.0
2014-Jul-18 20:22N 53°31' E 009°56'0 0.0
2014-Jul-18 19:31N 53°31' E 009°56'0 0.0
2014-Jul-18 18:28N 53°31' E 009°56'0 0.0
2014-Jul-18 17:28N 53°31' E 009°56'0 0.0
2014-Jul-18 16:28N 53°31' E 009°56'0 0.0
2014-Jul-18 15:31N 53°31' E 009°56'0 0.0
2014-Jul-18 14:20N 53°31' E 009°56'0 0.0
2014-Jul-18 13:32N 53°31' E 009°56'0 0.0
2014-Jul-18 12:28N 53°31' E 009°56'0 0.0
2014-Jul-18 11:31N 53°31' E 009°56'0 0.0
2014-Jul-18 10:13N 53°31' E 009°56'0 0.0
2014-Jul-18 09:22N 53°31' E 009°56'0 0.0
2014-Jul-18 08:22N 53°31' E 009°56'0 0.0
2014-Jul-18 07:28N 53°31' E 009°56'0 0.0
2014-Jul-18 06:31N 53°31' E 009°56'0 0.0
2014-Jul-18 05:16N 53°31' E 009°56'0 0.0
2014-Jul-18 04:31N 53°31' E 009°56'0 0.0
2014-Jul-18 03:33N 53°31' E 009°56'0 0.0
2014-Jul-18 02:34N 53°31' E 009°56'0 0.0
2014-Jul-18 01:33N 53°31' E 009°56'0 0.0
2014-Jul-18 00:33N 53°31' E 009°56'0 0.0
2014-Jul-17 23:33N 53°31' E 009°56'0 0.0
2014-Jul-17 22:33N 53°31' E 009°56'0 0.0
2014-Jul-17 21:33N 53°31' E 009°56'0 0.0
2014-Jul-17 20:33N 53°31' E 009°56'0 0.0
2014-Jul-17 19:33N 53°31' E 009°56'0 0.0
2014-Jul-17 18:33N 53°31' E 009°56'0 0.0
2014-Jul-17 17:34N 53°31' E 009°56'0 0.0
2014-Jul-17 16:33N 53°31' E 009°56'0 0.4
2014-Jul-17 15:33N 53°32' E 009°56'1111.2
2014-Jul-17 14:34N 53°34' E 009°38'1615.9
2014-Jul-17 13:33N 53°48' E 009°23'1312.7
2014-Jul-17 12:33N 53°52' E 009°02'1313.0
2014-Jul-17 11:33N 53°54' E 008°41'1515.0
2014-Jul-17 10:34N 53°60' E 008°17'1111.2
2014-Jul-17 09:34N 54°01' E 007°58'1010.0
2014-Jul-17 08:33N 54°06' E 007°43'9 9.4
2014-Jul-17 07:33N 54°11' E 007°29'9 9.3
2014-Jul-17 06:33N 54°18' E 007°18'7 7.1
2014-Jul-17 05:33N 54°23' E 007°11'10 9.6
2014-Jul-17 04:33N 54°31' E 007°02'10 9.8
2014-Jul-17 03:33N 54°40' E 006°52'1010.0
2014-Jul-17 02:33N 54°48' E 006°43'1210.2
2014-Jul-17 01:22N 54°58' E 006°32'68 7.6
2014-Jul-16 16:28N 54°24' E 004°50'72 9.8
2014-Jul-16 09:09N 55°09' E 006°29'5 8.7
2014-Jul-16 08:33N 55°13' E 006°34'90 9.9
2014-Jul-15 23:32N 54°16' E 004°33'1110.8
2014-Jul-15 22:33N 54°11' E 004°18'1111.1
2014-Jul-15 21:32N 54°04' E 004°03'6810.7
2014-Jul-15 15:14N 53°09' E 002°57'912.2
2014-Jul-15 14:29N 53°00' E 003°01'36 9.1
2014-Jul-15 10:29N 52°31' E 003°37'1011.2
2014-Jul-15 09:33N 52°31' E 003°54'1110.7
2014-Jul-15 08:32N 52°31' E 004°12'2 2.1
2014-Jul-15 07:33N 52°33' E 004°14'0 0.0
2014-Jul-15 04:30N 52°33' E 004°14'0 0.0
2014-Jul-15 03:24N 52°33' E 004°14'0 0.0
2014-Jul-15 02:33N 52°33' E 004°14'0 0.0
2014-Jul-15 01:33N 52°33' E 004°14'0 0.1
2014-Jul-15 00:33N 52°33' E 004°14'154154.0
2014-Jul-14 23:33N 52°33' E 000°00'154154.0
2014-Jul-14 22:33N 52°33' E 004°14'0 0.0
2014-Jul-14 21:33N 52°33' E 004°14'0 0.1
2014-Jul-14 20:33N 52°33' E 004°14'0 0.0
2014-Jul-14 19:30N 52°33' E 004°14'0 0.0
2014-Jul-14 18:18N 52°33' E 004°14'0 0.0
2014-Jul-14 17:27N 52°33' E 004°14'0 0.0
2014-Jul-14 16:21N 52°33' E 004°14'2 2.8
2014-Jul-14 15:33N 52°32' E 004°17'0 0.1
2014-Jul-14 14:33N 52°32' E 004°17'0 0.0
2014-Jul-14 13:33N 52°31' E 004°17'0 0.1
2014-Jul-14 12:33N 52°31' E 004°17'0 0.0
2014-Jul-14 11:30N 52°31' E 004°17'0 0.0
2014-Jul-14 10:27N 52°31' E 004°17'0 0.0
2014-Jul-14 09:33N 52°31' E 004°17'0 0.1
2014-Jul-14 08:33N 52°31' E 004°17'0 0.0
2014-Jul-14 07:33N 52°31' E 004°17'0 0.1
2014-Jul-14 06:27N 52°32' E 004°17'0 0.0
2014-Jul-14 05:30N 52°32' E 004°17'0 0.0
2014-Jul-14 04:24N 52°32' E 004°17'0 0.1
2014-Jul-14 03:33N 52°32' E 004°17'1010.3
2014-Jul-14 02:33N 52°28' E 004°33'3 2.6
2014-Jul-14 01:33N 52°28' E 004°37'8 8.0
2014-Jul-14 00:33N 52°25' E 004°49'1 1.0
2014-Jul-13 23:33N 52°25' E 004°51'0 0.0
2014-Jul-13 22:33N 52°25' E 004°51'0 0.0
2014-Jul-13 21:33N 52°25' E 004°51'0 0.0
2014-Jul-13 20:33N 52°25' E 004°51'0 0.0
2014-Jul-13 19:33N 52°25' E 004°51'0 0.0
2014-Jul-13 18:33N 52°25' E 004°51'0 0.0
2014-Jul-13 17:33N 52°25' E 004°51'0 0.0
2014-Jul-13 16:33N 52°25' E 004°51'0 0.0
2014-Jul-13 15:33N 52°25' E 004°51'0 0.0
2014-Jul-13 14:33N 52°25' E 004°51'0 0.0
2014-Jul-13 13:33N 52°25' E 004°51'0 0.0
2014-Jul-13 12:30N 52°25' E 004°51'0 0.0
2014-Jul-13 11:33N 52°25' E 004°51'0 0.0
2014-Jul-13 10:33N 52°25' E 004°51'0 0.0
2014-Jul-13 09:33N 52°25' E 004°51'0 0.0
2014-Jul-13 08:33N 52°25' E 004°51'0 0.0
2014-Jul-13 07:33N 52°25' E 004°51'0 0.0
2014-Jul-13 06:33N 52°25' E 004°51'0 0.0
2014-Jul-13 05:33N 52°25' E 004°51'0 0.0
2014-Jul-13 04:33N 52°25' E 004°51'0 0.0
2014-Jul-13 03:33N 52°25' E 004°51'0 0.0
2014-Jul-13 02:33N 52°25' E 004°51'0 0.0
2014-Jul-13 01:33N 52°25' E 004°51'0 0.0
2014-Jul-13 00:33N 52°25' E 004°51'0 0.0
2014-Jul-12 23:33N 52°25' E 004°51'0 0.0
2014-Jul-12 22:33N 52°25' E 004°51'0 0.0
2014-Jul-12 21:33N 52°25' E 004°51'0 0.0
2014-Jul-12 20:33N 52°25' E 004°51'0 0.0
2014-Jul-12 19:33N 52°25' E 004°51'0 0.0
2014-Jul-12 18:33N 52°25' E 004°51'0 0.0
2014-Jul-12 17:33N 52°25' E 004°51'0 0.0
2014-Jul-12 16:30N 52°25' E 004°51'0 0.0
2014-Jul-12 15:30N 52°25' E 004°51'0 0.0
2014-Jul-12 14:33N 52°25' E 004°51'0 0.0
2014-Jul-12 13:30N 52°25' E 004°51'0 0.0
2014-Jul-12 12:33N 52°25' E 004°51'0 0.0
2014-Jul-12 11:33N 52°25' E 004°51'0 0.0
2014-Jul-12 10:30N 52°25' E 004°51'0 0.0
2014-Jul-12 09:33N 52°25' E 004°51'5 5.4
2014-Jul-12 08:33N 52°26' E 004°42'5 4.7
2014-Jul-12 07:34N 52°28' E 004°35'4 4.4
2014-Jul-12 06:33N 52°28' E 004°28'7 7.4
2014-Jul-12 05:33N 52°29' E 004°16'1010.1
2014-Jul-12 04:33N 52°27' E 003°59'1010.4
2014-Jul-12 03:33N 52°25' E 003°43'10 9.9
2014-Jul-12 02:33N 52°27' E 003°27'1010.0
2014-Jul-12 01:33N 52°30' E 003°11'8 7.4
2014-Jul-12 00:28N 52°37' E 003°07'7 6.8
2014-Jul-11 23:27N 52°32' E 003°01'9 9.6
2014-Jul-11 22:32N 52°24' E 002°54'10 9.5
2014-Jul-11 21:31N 52°24' E 002°38'9 1.5
2014-Jul-11 15:18N 52°33' E 002°38'810.3
2014-Jul-11 14:29N 52°26' E 002°47'910.1
2014-Jul-11 13:33N 52°21' E 002°60'11 9.8
2014-Jul-11 12:29N 52°16' E 003°15'9 9.6
2014-Jul-11 11:33N 52°11' E 003°27'10 9.5
2014-Jul-11 10:33N 52°06' E 003°40'5 5.2
2014-Jul-11 09:33N 52°04' E 003°48'1211.8
2014-Jul-11 08:33N 51°59' E 004°05'1111.4
2014-Jul-11 07:33N 51°54' E 004°22'3 1.5
2014-Jul-11 05:29N 51°54' E 004°27'0 0.0
2014-Jul-11 04:33N 51°54' E 004°27'0 0.0
2014-Jul-11 03:33N 51°54' E 004°27'0 0.0
2014-Jul-11 02:33N 51°54' E 004°27'0 0.0
2014-Jul-11 01:33N 51°54' E 004°27'0 0.0
2014-Jul-11 00:33N 51°54' E 004°27'0 0.0
2014-Jul-10 23:33N 51°54' E 004°27'0 0.0
2014-Jul-10 22:33N 51°54' E 004°27'0 0.0
2014-Jul-10 21:33N 51°54' E 004°27'  
Track history (hours):
 
Tides and Currents Weather Stations Pressure Air Temp Water Temp Dewpoint Dewpoint Depression Visibility Wind Speed Wind Dir Waves Ship Positions

Tour Pomerol

Last reported at 2014-Jul-20 20:33 UTC. Time now 2014-Jul-22 17:32 UTC.
Position N 50°21' W 001°01'.

Length 120 m; draft 6.8 m.

Type: Tanker. MMSI: 563384980.

Date/timePositionNaut miles runAvg speedWind from/ knotsBaromVisibWave heightAir tempDewpointWater temp
2014-Jul-20 20:33N 50°21' W 001°01'1414.0
2014-Jul-20 19:33N 50°25' W 000°40'1313.3
2014-Jul-20 18:34N 50°28' W 000°20'1412.7
2014-Jul-20 17:26N 50°32' E 000°01'1112.0
2014-Jul-20 16:33N 50°35' E 000°18'1111.4
2014-Jul-20 15:34N 50°38' E 000°35'1211.7
2014-Jul-20 14:33N 50°45' E 000°50'1212.1
2014-Jul-20 13:33N 50°52' E 001°05'1313.0
2014-Jul-20 12:34N 51°01' E 001°21'1413.5
2014-Jul-20 11:33N 51°09' E 001°37'1312.8
2014-Jul-20 10:33N 51°19' E 001°51'1212.2
2014-Jul-20 09:33N 51°29' E 002°02'1211.5
2014-Jul-20 08:33N 51°38' E 002°14'1111.2
2014-Jul-20 07:33N 51°46' E 002°26'1110.3
2014-Jul-20 06:31N 51°56' E 002°34'13512.1
2014-Jul-19 19:20N 53°57' E 004°12'1012.4
2014-Jul-19 18:33N 54°02' E 004°26'1312.8
2014-Jul-19 17:33N 54°04' E 004°48'1312.8
2014-Jul-19 16:33N 54°05' E 005°09'1312.6
2014-Jul-19 15:33N 54°07' E 005°31'1312.8
2014-Jul-19 14:33N 54°09' E 005°53'1212.0
2014-Jul-19 13:33N 54°11' E 006°13'1411.0
2014-Jul-19 12:15N 54°11' E 006°37'811.3
2014-Jul-19 11:33N 54°11' E 006°51'1212.0
2014-Jul-19 10:33N 54°12' E 007°11'1212.3
2014-Jul-19 09:33N 54°12' E 007°32'1312.6
2014-Jul-19 08:33N 54°06' E 007°51'1212.3
2014-Jul-19 07:33N 54°01' E 008°10'1515.2
2014-Jul-19 06:33N 53°58' E 008°36'1312.6
2014-Jul-19 05:34N 53°51' E 008°53'1211.6
2014-Jul-19 04:33N 53°53' E 009°12'1110.6
2014-Jul-19 03:33N 53°45' E 009°24'1212.5
2014-Jul-19 02:34N 53°35' E 009°37'1211.2
2014-Jul-19 01:28N 53°31' E 009°56'0 0.0
2014-Jul-19 00:28N 53°31' E 009°56'0 0.0
2014-Jul-18 23:31N 53°31' E 009°56'0 0.0
2014-Jul-18 22:28N 53°31' E 009°56'0 0.0
2014-Jul-18 21:22N 53°31' E 009°56'0 0.0
2014-Jul-18 20:22N 53°31' E 009°56'0 0.0
2014-Jul-18 19:31N 53°31' E 009°56'0 0.0
2014-Jul-18 18:28N 53°31' E 009°56'0 0.0
2014-Jul-18 17:28N 53°31' E 009°56'0 0.0
2014-Jul-18 16:28N 53°31' E 009°56'0 0.0
2014-Jul-18 15:31N 53°31' E 009°56'0 0.0
2014-Jul-18 14:20N 53°31' E 009°56'0 0.0
2014-Jul-18 13:32N 53°31' E 009°56'0 0.0
2014-Jul-18 12:28N 53°31' E 009°56'0 0.0
2014-Jul-18 11:31N 53°31' E 009°56'0 0.0
2014-Jul-18 10:13N 53°31' E 009°56'0 0.0
2014-Jul-18 09:22N 53°31' E 009°56'0 0.0
2014-Jul-18 08:22N 53°31' E 009°56'0 0.0
2014-Jul-18 07:28N 53°31' E 009°56'0 0.0
2014-Jul-18 06:31N 53°31' E 009°56'0 0.0
2014-Jul-18 05:16N 53°31' E 009°56'0 0.0
2014-Jul-18 04:31N 53°31' E 009°56'0 0.0
2014-Jul-18 03:33N 53°31' E 009°56'0 0.0
2014-Jul-18 02:34N 53°31' E 009°56'0 0.0
2014-Jul-18 01:33N 53°31' E 009°56'0 0.0
2014-Jul-18 00:33N 53°31' E 009°56'0 0.0
2014-Jul-17 23:33N 53°31' E 009°56'0 0.0
2014-Jul-17 22:33N 53°31' E 009°56'0 0.0
2014-Jul-17 21:33N 53°31' E 009°56'0 0.0
2014-Jul-17 20:33N 53°31' E 009°56'0 0.0
2014-Jul-17 19:33N 53°31' E 009°56'0 0.0
2014-Jul-17 18:33N 53°31' E 009°56'0 0.0
2014-Jul-17 17:34N 53°31' E 009°56'0 0.0
2014-Jul-17 16:33N 53°31' E 009°56'0 0.4
2014-Jul-17 15:33N 53°32' E 009°56'1111.2
2014-Jul-17 14:34N 53°34' E 009°38'1615.9
2014-Jul-17 13:33N 53°48' E 009°23'1312.7
2014-Jul-17 12:33N 53°52' E 009°02'1313.0
2014-Jul-17 11:33N 53°54' E 008°41'1515.0
2014-Jul-17 10:34N 53°60' E 008°17'1111.2
2014-Jul-17 09:34N 54°01' E 007°58'1010.0
2014-Jul-17 08:33N 54°06' E 007°43'9 9.4
2014-Jul-17 07:33N 54°11' E 007°29'9 9.3
2014-Jul-17 06:33N 54°18' E 007°18'7 7.1
2014-Jul-17 05:33N 54°23' E 007°11'10 9.6
2014-Jul-17 04:33N 54°31' E 007°02'10 9.8
2014-Jul-17 03:33N 54°40' E 006°52'1010.0
2014-Jul-17 02:33N 54°48' E 006°43'1210.2
2014-Jul-17 01:22N 54°58' E 006°32'68 7.6
2014-Jul-16 16:28N 54°24' E 004°50'72 9.8
2014-Jul-16 09:09N 55°09' E 006°29'5 8.7
2014-Jul-16 08:33N 55°13' E 006°34'90 9.9
2014-Jul-15 23:32N 54°16' E 004°33'1110.8
2014-Jul-15 22:33N 54°11' E 004°18'1111.1
2014-Jul-15 21:32N 54°04' E 004°03'6810.7
2014-Jul-15 15:14N 53°09' E 002°57'912.2
2014-Jul-15 14:29N 53°00' E 003°01'36 9.1
2014-Jul-15 10:29N 52°31' E 003°37'1011.2
2014-Jul-15 09:33N 52°31' E 003°54'1110.7
2014-Jul-15 08:32N 52°31' E 004°12'2 2.1
2014-Jul-15 07:33N 52°33' E 004°14'0 0.0
2014-Jul-15 04:30N 52°33' E 004°14'0 0.0
2014-Jul-15 03:24N 52°33' E 004°14'0 0.0
2014-Jul-15 02:33N 52°33' E 004°14'0 0.0
2014-Jul-15 01:33N 52°33' E 004°14'0 0.1
2014-Jul-15 00:33N 52°33' E 004°14'154154.0
2014-Jul-14 23:33N 52°33' E 000°00'154154.0
2014-Jul-14 22:33N 52°33' E 004°14'0 0.0
2014-Jul-14 21:33N 52°33' E 004°14'0 0.1
2014-Jul-14 20:33N 52°33' E 004°14'0 0.0
2014-Jul-14 19:30N 52°33' E 004°14'0 0.0
2014-Jul-14 18:18N 52°33' E 004°14'0 0.0
2014-Jul-14 17:27N 52°33' E 004°14'0 0.0
2014-Jul-14 16:21N 52°33' E 004°14'2 2.8
2014-Jul-14 15:33N 52°32' E 004°17'0 0.1
2014-Jul-14 14:33N 52°32' E 004°17'0 0.0
2014-Jul-14 13:33N 52°31' E 004°17'0 0.1
2014-Jul-14 12:33N 52°31' E 004°17'0 0.0
2014-Jul-14 11:30N 52°31' E 004°17'0 0.0
2014-Jul-14 10:27N 52°31' E 004°17'0 0.0
2014-Jul-14 09:33N 52°31' E 004°17'0 0.1
2014-Jul-14 08:33N 52°31' E 004°17'0 0.0
2014-Jul-14 07:33N 52°31' E 004°17'0 0.1
2014-Jul-14 06:27N 52°32' E 004°17'0 0.0
2014-Jul-14 05:30N 52°32' E 004°17'0 0.0
2014-Jul-14 04:24N 52°32' E 004°17'0 0.1
2014-Jul-14 03:33N 52°32' E 004°17'1010.3
2014-Jul-14 02:33N 52°28' E 004°33'3 2.6
2014-Jul-14 01:33N 52°28' E 004°37'8 8.0
2014-Jul-14 00:33N 52°25' E 004°49'1 1.0
2014-Jul-13 23:33N 52°25' E 004°51'0 0.0
2014-Jul-13 22:33N 52°25' E 004°51'0 0.0
2014-Jul-13 21:33N 52°25' E 004°51'0 0.0
2014-Jul-13 20:33N 52°25' E 004°51'0 0.0
2014-Jul-13 19:33N 52°25' E 004°51'0 0.0
2014-Jul-13 18:33N 52°25' E 004°51'0 0.0
2014-Jul-13 17:33N 52°25' E 004°51'0 0.0
2014-Jul-13 16:33N 52°25' E 004°51'0 0.0
2014-Jul-13 15:33N 52°25' E 004°51'0 0.0
2014-Jul-13 14:33N 52°25' E 004°51'0 0.0
2014-Jul-13 13:33N 52°25' E 004°51'0 0.0
2014-Jul-13 12:30N 52°25' E 004°51'0 0.0
2014-Jul-13 11:33N 52°25' E 004°51'0 0.0
2014-Jul-13 10:33N 52°25' E 004°51'0 0.0
2014-Jul-13 09:33N 52°25' E 004°51'0 0.0
2014-Jul-13 08:33N 52°25' E 004°51'0 0.0
2014-Jul-13 07:33N 52°25' E 004°51'0 0.0
2014-Jul-13 06:33N 52°25' E 004°51'0 0.0
2014-Jul-13 05:33N 52°25' E 004°51'0 0.0
2014-Jul-13 04:33N 52°25' E 004°51'0 0.0
2014-Jul-13 03:33N 52°25' E 004°51'0 0.0
2014-Jul-13 02:33N 52°25' E 004°51'0 0.0
2014-Jul-13 01:33N 52°25' E 004°51'0 0.0
2014-Jul-13 00:33N 52°25' E 004°51'0 0.0
2014-Jul-12 23:33N 52°25' E 004°51'0 0.0
2014-Jul-12 22:33N 52°25' E 004°51'0 0.0
2014-Jul-12 21:33N 52°25' E 004°51'0 0.0
2014-Jul-12 20:33N 52°25' E 004°51'0 0.0
2014-Jul-12 19:33N 52°25' E 004°51'0 0.0
2014-Jul-12 18:33N 52°25' E 004°51'0 0.0
2014-Jul-12 17:33N 52°25' E 004°51'0 0.0
2014-Jul-12 16:30N 52°25' E 004°51'0 0.0
2014-Jul-12 15:30N 52°25' E 004°51'0 0.0
2014-Jul-12 14:33N 52°25' E 004°51'0 0.0
2014-Jul-12 13:30N 52°25' E 004°51'0 0.0
2014-Jul-12 12:33N 52°25' E 004°51'0 0.0
2014-Jul-12 11:33N 52°25' E 004°51'0 0.0
2014-Jul-12 10:30N 52°25' E 004°51'0 0.0
2014-Jul-12 09:33N 52°25' E 004°51'5 5.4
2014-Jul-12 08:33N 52°26' E 004°42'5 4.7
2014-Jul-12 07:34N 52°28' E 004°35'4 4.4
2014-Jul-12 06:33N 52°28' E 004°28'7 7.4
2014-Jul-12 05:33N 52°29' E 004°16'1010.1
2014-Jul-12 04:33N 52°27' E 003°59'1010.4
2014-Jul-12 03:33N 52°25' E 003°43'10 9.9
2014-Jul-12 02:33N 52°27' E 003°27'1010.0
2014-Jul-12 01:33N 52°30' E 003°11'8 7.4
2014-Jul-12 00:28N 52°37' E 003°07'7 6.8
2014-Jul-11 23:27N 52°32' E 003°01'9 9.6
2014-Jul-11 22:32N 52°24' E 002°54'10 9.5
2014-Jul-11 21:31N 52°24' E 002°38'9 1.5
2014-Jul-11 15:18N 52°33' E 002°38'810.3
2014-Jul-11 14:29N 52°26' E 002°47'910.1
2014-Jul-11 13:33N 52°21' E 002°60'11 9.8
2014-Jul-11 12:29N 52°16' E 003°15'9 9.6
2014-Jul-11 11:33N 52°11' E 003°27'10 9.5
2014-Jul-11 10:33N 52°06' E 003°40'5 5.2
2014-Jul-11 09:33N 52°04' E 003°48'1211.8
2014-Jul-11 08:33N 51°59' E 004°05'1111.4
2014-Jul-11 07:33N 51°54' E 004°22'3 1.5
2014-Jul-11 05:29N 51°54' E 004°27'0 0.0
2014-Jul-11 04:33N 51°54' E 004°27'0 0.0
2014-Jul-11 03:33N 51°54' E 004°27'0 0.0
2014-Jul-11 02:33N 51°54' E 004°27'0 0.0
2014-Jul-11 01:33N 51°54' E 004°27'0 0.0
2014-Jul-11 00:33N 51°54' E 004°27'0 0.0
2014-Jul-10 23:33N 51°54' E 004°27'0 0.0
2014-Jul-10 22:33N 51°54' E 004°27'0 0.0
2014-Jul-10 21:33N 51°54' E 004°27'  

Dump ship's entire track history